Time;durP1;ratioP1;P1;durP2;ratioP2;P2;SDS_P1;SDS_P2;PMS_P1;PMS_P2;Temp;Humidity;BMP_temperature;BMP_pressure;BME280_temperature;BME280_humidity;BME280_pressure;Samples;Min_cycle;Max_cycle;Signal;HPM_P1;HPM_P2
2023/08/17 00:00:08;;;;;;;;;;;;;;;23.68;100.00;99545.69;5051500;28;839;-59
2023/08/17 00:02:34;;;;;;;;;;;;;;;23.59;100.00;99548.69;5051307;28;847;-59
2023/08/17 00:05:01;;;;;;;;;;;;;;;23.59;100.00;99551.50;5054344;28;883;-59
2023/08/17 00:07:28;;;;;;;;;;;;;;;23.56;100.00;99544.06;5055071;28;861;-58
2023/08/17 00:09:55;;;;;;;;;;;;;;;23.53;100.00;99545.81;5055136;28;906;-58
2023/08/17 00:12:21;;;;;;;;;;;;;;;23.55;100.00;99540.44;5054931;28;1948;-58
2023/08/17 00:14:48;;;;;;;;;;;;;;;23.61;100.00;99552.56;5055203;28;888;-59
2023/08/17 00:17:15;;;;;;;;;;;;;;;23.64;100.00;99557.22;5054996;28;827;-59
2023/08/17 00:19:41;;;;;;;;;;;;;;;23.64;100.00;99560.03;5054922;28;843;-59
2023/08/17 00:22:08;;;;;;;;;;;;;;;23.67;100.00;99554.66;5054928;28;823;-60
2023/08/17 00:24:36;;;;;;;;;;;;;;;23.70;100.00;99553.66;5054977;28;869;-58
2023/08/17 00:27:03;;;;;;;;;;;;;;;23.70;100.00;99562.13;5054904;28;823;-59
2023/08/17 00:29:30;;;;;;;;;;;;;;;23.65;100.00;99552.34;5054558;28;863;-59
2023/08/17 00:31:56;;;;;;;;;;;;;;;23.63;100.00;99561.28;5054772;28;874;-59
2023/08/17 00:34:23;;;;;;;;;;;;;;;23.62;100.00;99570.28;5054618;28;2220;-59
2023/08/17 00:36:50;;;;;;;;;;;;;;;23.70;100.00;99556.47;5054790;28;890;-59
2023/08/17 00:39:16;;;;;;;;;;;;;;;23.72;100.00;99562.41;5054640;28;986;-60
2023/08/17 00:41:43;;;;;;;;;;;;;;;23.71;100.00;99563.69;5054708;28;906;-58
2023/08/17 00:44:09;;;;;;;;;;;;;;;23.65;100.00;99566.44;5054395;28;1281;-59
2023/08/17 00:46:37;;;;;;;;;;;;;;;23.54;100.00;99560.72;5054571;28;870;-58
2023/08/17 00:49:05;;;;;;;;;;;;;;;23.48;100.00;99554.25;5054632;28;883;-58
2023/08/17 00:51:31;;;;;;;;;;;;;;;23.42;100.00;99559.81;5054571;28;899;-59
2023/08/17 00:53:59;;;;;;;;;;;;;;;23.38;100.00;99560.03;5054386;28;1906;-58
2023/08/17 00:56:26;;;;;;;;;;;;;;;23.32;100.00;99553.56;5054493;28;828;-59
2023/08/17 00:58:54;;;;;;;;;;;;;;;23.31;100.00;99560.47;5054116;28;867;-59
2023/08/17 01:01:21;;;;;;;;;;;;;;;23.34;100.00;99553.84;5054222;28;840;-59
2023/08/17 01:03:48;;;;;;;;;;;;;;;23.35;100.00;99557.44;5054103;28;813;-60
2023/08/17 01:06:15;;;;;;;;;;;;;;;23.32;100.00;99555.59;5054074;28;881;-59
2023/08/17 01:08:43;;;;;;;;;;;;;;;23.21;100.00;99553.44;5054030;28;860;-59
2023/08/17 01:11:18;;;;;;;;;;;;;;;23.13;100.00;99558.75;5053940;28;867;-59
2023/08/17 01:14:02;;;;;;;;;;;;;;;23.12;100.00;99554.38;5053894;28;1940;-59
2023/08/17 01:16:55;;;;;;;;;;;;;;;23.02;100.00;99559.41;5052727;28;855;-59
2023/08/17 01:19:26;;;;;;;;;;;;;;;23.02;100.00;99567.06;5050769;28;1070;-59
2023/08/17 01:22:03;;;;;;;;;;;;;;;22.99;100.00;99551.88;5053843;28;784;-58
2023/08/17 01:24:30;;;;;;;;;;;;;;;22.99;100.00;99543.44;5053766;28;820;-58
2023/08/17 01:26:57;;;;;;;;;;;;;;;22.96;100.00;99544.44;5053712;28;832;-60
2023/08/17 01:29:24;;;;;;;;;;;;;;;22.91;100.00;99536.69;5053455;28;820;-59
2023/08/17 01:31:59;;;;;;;;;;;;;;;22.84;100.00;99537.13;5053604;28;815;-59
2023/08/17 01:34:27;;;;;;;;;;;;;;;22.72;100.00;99536.19;5053394;28;1886;-59
2023/08/17 01:36:57;;;;;;;;;;;;;;;22.65;100.00;99527.41;5053453;28;858;-59
2023/08/17 01:39:27;;;;;;;;;;;;;;;22.58;100.00;99535.00;5053374;28;826;-59
2023/08/17 01:41:57;;;;;;;;;;;;;;;22.56;100.00;99526.28;5053781;28;911;-59
2023/08/17 01:44:24;;;;;;;;;;;;;;;22.53;100.00;99532.91;5053027;28;1302;-59
2023/08/17 01:46:51;;;;;;;;;;;;;;;22.53;100.00;99535.72;5053439;28;906;-59
2023/08/17 01:49:18;;;;;;;;;;;;;;;22.53;100.00;99530.09;5051900;28;1206;-58
2023/08/17 01:51:44;;;;;;;;;;;;;;;22.54;100.00;99537.25;5053427;28;918;-59
2023/08/17 01:54:10;;;;;;;;;;;;;;;22.52;100.00;99534.16;5053139;28;1902;-59
2023/08/17 01:56:37;;;;;;;;;;;;;;;22.54;100.00;99528.81;5053230;28;875;-59
2023/08/17 01:59:04;;;;;;;;;;;;;;;22.55;100.00;99526.75;5051880;28;1306;-59
2023/08/17 02:01:30;;;;;;;;;;;;;;;22.56;100.00;99529.09;5053180;28;1210;-59
2023/08/17 02:03:59;;;;;;;;;;;;;;;22.54;100.00;99519.59;5053118;28;1313;-59
2023/08/17 02:06:26;;;;;;;;;;;;;;;22.51;100.00;99531.81;5053032;28;938;-59
2023/08/17 02:08:53;;;;;;;;;;;;;;;22.45;100.00;99522.53;5053001;28;844;-59
2023/08/17 02:11:19;;;;;;;;;;;;;;;22.40;100.00;99526.81;5052994;28;837;-59
2023/08/17 02:13:46;;;;;;;;;;;;;;;22.41;100.00;99536.81;5052907;28;1940;-58
2023/08/17 02:16:12;;;;;;;;;;;;;;;22.40;100.00;99533.25;5052882;28;876;-59
2023/08/17 02:18:39;;;;;;;;;;;;;;;22.44;100.00;99538.66;5052932;28;1233;-58
2023/08/17 02:21:06;;;;;;;;;;;;;;;22.53;100.00;99535.72;5053203;28;796;-59
2023/08/17 02:23:32;;;;;;;;;;;;;;;22.66;100.00;99538.19;5052606;28;1297;-59
2023/08/17 02:25:59;;;;;;;;;;;;;;;22.77;100.00;99541.13;5052425;28;810;-59
2023/08/17 02:28:26;;;;;;;;;;;;;;;22.83;100.00;99541.97;5052393;28;835;-59
2023/08/17 02:30:55;;;;;;;;;;;;;;;22.94;100.00;99541.34;5052359;28;827;-59
2023/08/17 02:33:23;;;;;;;;;;;;;;;22.99;100.00;99539.84;5052608;28;1945;-59
2023/08/17 02:35:50;;;;;;;;;;;;;;;23.00;100.00;99550.66;5052553;28;930;-59
2023/08/17 02:38:17;;;;;;;;;;;;;;;23.06;100.00;99541.50;5052456;28;879;-59
2023/08/17 02:40:44;;;;;;;;;;;;;;;23.06;100.00;99530.22;5052488;28;828;-59
2023/08/17 02:43:10;;;;;;;;;;;;;;;23.12;100.00;99545.16;5052812;28;911;-58
2023/08/17 02:45:37;;;;;;;;;;;;;;;23.11;100.00;99540.75;5052229;28;1279;-59
2023/08/17 02:48:04;;;;;;;;;;;;;;;23.09;100.00;99540.50;5050942;28;852;-58
2023/08/17 02:50:31;;;;;;;;;;;;;;;23.05;100.00;99537.13;5052339;28;1174;-59
2023/08/17 02:52:59;;;;;;;;;;;;;;;23.09;100.00;99549.75;5052216;28;1910;-59
2023/08/17 02:55:26;;;;;;;;;;;;;;;23.07;100.00;99548.69;5052085;28;890;-59
2023/08/17 02:57:53;;;;;;;;;;;;;;;23.07;100.00;99540.22;5052105;28;860;-59
2023/08/17 03:00:20;;;;;;;;;;;;;;;23.10;100.00;99545.63;5052180;28;879;-58
2023/08/17 03:02:47;;;;;;;;;;;;;;;23.00;100.00;99547.84;5052127;28;923;-59
2023/08/17 03:05:13;;;;;;;;;;;;;;;22.92;100.00;99543.88;5052116;28;931;-59
2023/08/17 03:07:40;;;;;;;;;;;;;;;22.84;100.00;99548.38;5052121;28;867;-58
2023/08/17 03:10:06;;;;;;;;;;;;;;;22.76;100.00;99555.72;5051915;28;868;-59
2023/08/17 03:12:33;;;;;;;;;;;;;;;22.74;100.00;99556.19;5051814;28;1943;-59
2023/08/17 03:14:59;;;;;;;;;;;;;;;22.77;100.00;99552.41;5051753;28;890;-59
2023/08/17 03:17:26;;;;;;;;;;;;;;;22.69;100.00;99545.63;5051777;28;804;-59
2023/08/17 03:19:53;;;;;;;;;;;;;;;22.60;100.00;99555.00;5051725;28;823;-59
2023/08/17 03:22:20;;;;;;;;;;;;;;;22.58;100.00;99553.94;5051761;28;876;-59
2023/08/17 03:24:47;;;;;;;;;;;;;;;22.60;100.00;99548.59;5051786;28;820;-59
2023/08/17 03:27:13;;;;;;;;;;;;;;;22.59;100.00;99553.44;5050314;28;1279;-59
2023/08/17 03:29:40;;;;;;;;;;;;;;;22.61;100.00;99550.13;5051921;28;871;-59
2023/08/17 03:32:07;;;;;;;;;;;;;;;22.59;100.00;99563.94;5051675;28;925;-58
2023/08/17 03:34:33;;;;;;;;;;;;;;;22.54;100.00;99565.41;5051525;28;1882;-59
2023/08/17 03:37:00;;;;;;;;;;;;;;;22.49;100.00;99566.13;5050218;28;864;-59
2023/08/17 03:39:27;;;;;;;;;;;;;;;22.43;100.00;99560.41;5053774;28;879;-59
2023/08/17 03:41:54;;;;;;;;;;;;;;;22.46;100.00;99560.69;5055744;28;980;-59
2023/08/17 03:44:20;;;;;;;;;;;;;;;22.47;100.00;99559.41;5055387;28;1153;-59
2023/08/17 03:46:47;;;;;;;;;;;;;;;22.48;100.00;99555.34;5055585;28;815;-58
2023/08/17 03:49:14;;;;;;;;;;;;;;;22.50;100.00;99558.44;5055474;28;919;-59
2023/08/17 03:51:40;;;;;;;;;;;;;;;22.49;100.00;99560.50;5055473;28;832;-58
2023/08/17 03:54:07;;;;;;;;;;;;;;;22.46;100.00;99555.06;5055388;28;1972;-59
2023/08/17 03:56:34;;;;;;;;;;;;;;;22.47;100.00;99568.66;5055341;28;878;-59
2023/08/17 03:59:01;;;;;;;;;;;;;;;22.51;100.00;99566.41;5055288;28;823;-59
2023/08/17 04:01:27;;;;;;;;;;;;;;;22.59;100.00;99573.16;5055241;28;910;-59
2023/08/17 04:03:54;;;;;;;;;;;;;;;22.67;100.00;99559.44;5055479;28;918;-58
2023/08/17 04:06:21;;;;;;;;;;;;;;;22.76;100.00;99558.53;5055149;28;886;-59
2023/08/17 04:08:48;;;;;;;;;;;;;;;22.82;100.00;99559.38;5055129;28;831;-59
2023/08/17 04:11:15;;;;;;;;;;;;;;;22.87;100.00;99555.84;5055162;28;930;-59
2023/08/17 04:13:41;;;;;;;;;;;;;;;22.97;100.00;99576.22;5055009;28;1951;-59
2023/08/17 04:16:08;;;;;;;;;;;;;;;22.98;100.00;99575.72;5054995;28;871;-58
2023/08/17 04:18:34;;;;;;;;;;;;;;;22.99;100.00;99568.81;5054922;28;833;-58
2023/08/17 04:21:00;;;;;;;;;;;;;;;23.03;100.00;99572.22;5055202;28;820;-58
2023/08/17 04:23:27;;;;;;;;;;;;;;;23.14;100.00;99565.94;5054810;28;816;-59
2023/08/17 04:25:54;;;;;;;;;;;;;;;23.25;100.00;99568.09;5054716;28;831;-58
2023/08/17 04:28:21;;;;;;;;;;;;;;;23.35;100.00;99571.53;5054758;28;891;-59
2023/08/17 04:30:47;;;;;;;;;;;;;;;23.47;100.00;99576.03;5054747;28;887;-58
2023/08/17 04:33:14;;;;;;;;;;;;;;;23.68;100.00;99576.72;5054553;28;1885;-58
2023/08/17 04:35:41;;;;;;;;;;;;;;;23.84;100.00;99589.47;5054709;28;844;-59
2023/08/17 04:38:07;;;;;;;;;;;;;;;24.03;98.69;99582.19;5054545;28;876;-58
2023/08/17 04:40:34;;;;;;;;;;;;;;;24.25;96.96;99592.88;5054648;28;816;-58
2023/08/17 04:43:01;;;;;;;;;;;;;;;24.45;94.60;99589.16;5054767;28;1020;-58
2023/08/17 04:45:28;;;;;;;;;;;;;;;24.50;94.01;99598.97;5054236;28;1301;-59
2023/08/17 04:47:55;;;;;;;;;;;;;;;24.50;93.79;99601.81;5054428;28;874;-58
2023/08/17 04:50:22;;;;;;;;;;;;;;;24.46;93.31;99596.34;5054164;28;843;-58
2023/08/17 04:52:49;;;;;;;;;;;;;;;24.45;93.17;99596.84;5054238;28;1918;-58
2023/08/17 04:55:15;;;;;;;;;;;;;;;24.43;93.49;99602.22;5054168;28;899;-58
2023/08/17 04:57:42;;;;;;;;;;;;;;;24.39;93.79;99607.34;5054500;28;879;-58
2023/08/17 05:00:10;;;;;;;;;;;;;;;24.39;93.62;99604.53;5054179;28;864;-58
2023/08/17 05:02:37;;;;;;;;;;;;;;;24.58;92.82;99604.91;5054124;28;1088;-58
2023/08/17 05:05:04;;;;;;;;;;;;;;;24.75;91.89;99605.00;5054070;28;819;-58
2023/08/17 05:07:31;;;;;;;;;;;;;;;24.99;89.32;99601.81;5054112;28;860;-58
2023/08/17 05:09:58;;;;;;;;;;;;;;;25.21;87.58;99601.91;5053945;28;831;-58
2023/08/17 05:12:25;;;;;;;;;;;;;;;25.36;85.84;99601.69;5053932;28;1909;-58
2023/08/17 05:14:52;;;;;;;;;;;;;;;25.59;84.85;99593.25;5053942;28;915;-58
2023/08/17 05:17:18;;;;;;;;;;;;;;;25.85;82.51;99598.69;5053836;28;899;-58
2023/08/17 05:19:45;;;;;;;;;;;;;;;25.95;81.23;99594.34;5053748;28;916;-58
2023/08/17 05:22:13;;;;;;;;;;;;;;;25.98;80.62;99604.63;5054018;28;887;-58
2023/08/17 05:24:40;;;;;;;;;;;;;;;25.92;80.82;99609.50;5053726;28;890;-58
2023/08/17 05:27:06;;;;;;;;;;;;;;;25.86;81.00;99598.19;5053764;28;859;-58
2023/08/17 05:29:33;;;;;;;;;;;;;;;25.84;81.34;99594.31;5053715;28;835;-58
2023/08/17 05:32:00;;;;;;;;;;;;;;;26.20;79.99;99598.19;5053566;28;859;-58
2023/08/17 05:34:26;;;;;;;;;;;;;;;26.67;76.44;99595.56;5053572;28;1898;-58
2023/08/17 05:36:54;;;;;;;;;;;;;;;27.27;72.49;99586.56;5053471;28;870;-58
2023/08/17 05:39:21;;;;;;;;;;;;;;;27.83;68.01;99587.50;5053525;28;930;-58
2023/08/17 05:41:47;;;;;;;;;;;;;;;28.45;64.79;99581.28;5053455;28;989;-58
2023/08/17 05:44:15;;;;;;;;;;;;;;;28.68;61.37;99590.38;5053157;28;1248;-58
2023/08/17 05:46:41;;;;;;;;;;;;;;;27.74;65.01;99582.94;5053499;28;827;-59
2023/08/17 05:49:08;;;;;;;;;;;;;;;27.13;69.48;99578.38;5053223;28;895;-58
2023/08/17 05:51:35;;;;;;;;;;;;;;;27.42;68.91;99574.13;5053205;28;863;-58
2023/08/17 05:54:03;;;;;;;;;;;;;;;28.40;63.90;99582.09;5053060;28;1909;-58
2023/08/17 05:56:29;;;;;;;;;;;;;;;28.10;63.56;99588.56;5053151;28;902;-58
2023/08/17 05:58:56;;;;;;;;;;;;;;;27.48;65.96;99575.63;5053144;28;823;-58
2023/08/17 06:01:22;;;;;;;;;;;;;;;27.56;66.30;99584.31;5052455;28;883;-58
2023/08/17 06:03:48;;;;;;;;;;;;;;;28.13;64.35;99579.00;5053301;28;824;-58
2023/08/17 06:06:15;;;;;;;;;;;;;;;28.66;61.74;99576.69;5053107;28;883;-58
2023/08/17 06:08:41;;;;;;;;;;;;;;;29.28;59.21;99578.00;5052944;28;832;-58
2023/08/17 06:11:08;;;;;;;;;;;;;;;29.37;57.48;99576.84;5053156;28;840;-58
2023/08/17 06:13:35;;;;;;;;;;;;;;;29.55;56.00;99575.28;5052854;28;1881;-59
2023/08/17 06:16:02;;;;;;;;;;;;;;;30.21;54.22;99569.78;5052798;28;851;-58
2023/08/17 06:18:29;;;;;;;;;;;;;;;30.57;52.72;99577.22;5052786;28;899;-58
2023/08/17 06:20:56;;;;;;;;;;;;;;;30.07;53.40;99579.66;5052962;28;852;-58
2023/08/17 06:23:23;;;;;;;;;;;;;;;29.24;56.70;99589.69;5052608;28;937;-58
2023/08/17 06:25:51;;;;;;;;;;;;;;;29.03;57.09;99582.97;5052562;28;840;-58
2023/08/17 06:28:18;;;;;;;;;;;;;;;29.25;54.60;99590.44;5052746;28;856;-59
2023/08/17 06:30:45;;;;;;;;;;;;;;;29.65;53.26;99585.72;5052490;28;877;-58
2023/08/17 06:33:15;;;;;;;;;;;;;;;30.28;51.67;99592.00;5052428;28;1968;-58
2023/08/17 06:35:42;;;;;;;;;;;;;;;30.36;50.20;99586.41;5051187;28;1254;-58
2023/08/17 06:38:08;;;;;;;;;;;;;;;30.62;48.84;99582.81;5052391;28;808;-58
2023/08/17 06:40:35;;;;;;;;;;;;;;;31.10;47.46;99582.91;5052380;28;1010;-58
2023/08/17 06:43:02;;;;;;;;;;;;;;;31.22;44.89;99589.91;5052610;28;956;-58
2023/08/17 06:45:28;;;;;;;;;;;;;;;31.01;45.56;99584.13;5050632;28;1347;-58
2023/08/17 06:47:55;;;;;;;;;;;;;;;31.18;43.77;99580.91;5052220;28;891;-58
2023/08/17 06:50:22;;;;;;;;;;;;;;;31.49;43.56;99584.91;5052206;28;840;-58
2023/08/17 06:52:49;;;;;;;;;;;;;;;31.94;42.58;99583.03;5051997;28;1973;-58
2023/08/17 06:55:16;;;;;;;;;;;;;;;32.61;42.31;99579.81;5052056;28;888;-58
2023/08/17 06:57:45;;;;;;;;;;;;;;;32.84;40.60;99586.44;5052048;28;831;-59
2023/08/17 07:00:12;;;;;;;;;;;;;;;32.82;40.84;99579.72;5050670;28;1143;-58
2023/08/17 07:02:39;;;;;;;;;;;;;;;32.80;41.31;99582.41;5051990;28;887;-58
2023/08/17 07:05:08;;;;;;;;;;;;;;;33.50;40.02;99593.59;5050579;28;1286;-58
2023/08/17 07:07:35;;;;;;;;;;;;;;;33.58;39.23;99592.81;5051942;28;906;-58
2023/08/17 07:10:02;;;;;;;;;;;;;;;33.97;38.41;99600.94;5052084;28;875;-58
2023/08/17 07:12:29;;;;;;;;;;;;;;;34.40;37.90;99586.22;5050245;28;1886;-58
2023/08/17 07:14:55;;;;;;;;;;;;;;;34.91;37.18;99597.44;5051236;28;835;-58
2023/08/17 07:17:22;;;;;;;;;;;;;;;35.20;37.04;99591.41;5051824;28;903;-59
2023/08/17 07:19:49;;;;;;;;;;;;;;;35.80;36.25;99597.41;5051782;28;888;-58
2023/08/17 07:22:16;;;;;;;;;;;;;;;36.29;35.05;99595.13;5051663;28;816;-58
2023/08/17 07:24:43;;;;;;;;;;;;;;;36.20;35.10;99602.31;5052006;28;879;-58
2023/08/17 07:27:10;;;;;;;;;;;;;;;35.97;34.57;99600.34;5051999;28;867;-58
2023/08/17 07:29:37;;;;;;;;;;;;;;;35.75;34.83;99595.53;5051724;28;812;-59
2023/08/17 07:32:04;;;;;;;;;;;;;;;35.01;35.95;99596.81;5051626;28;895;-58
2023/08/17 07:34:31;;;;;;;;;;;;;;;34.64;36.56;99597.13;5033655;28;1882;-59
2023/08/17 07:36:58;;;;;;;;;;;;;;;34.83;36.72;99593.06;5051814;28;847;-58
2023/08/17 07:39:25;;;;;;;;;;;;;;;34.61;36.96;99592.53;5051882;28;824;-58
2023/08/17 07:41:52;;;;;;;;;;;;;;;34.48;37.20;99598.44;5051717;28;908;-59
2023/08/17 07:44:18;;;;;;;;;;;;;;;35.54;35.97;99604.44;5051244;28;1121;-59
2023/08/17 07:46:45;;;;;;;;;;;;;;;36.03;34.17;99602.22;5051595;28;907;-59
2023/08/17 07:49:12;;;;;;;;;;;;;;;36.01;33.36;99602.81;5051425;28;866;-59
2023/08/17 07:51:39;;;;;;;;;;;;;;;36.19;32.78;99600.78;5051349;28;836;-59
2023/08/17 07:54:05;;;;;;;;;;;;;;;36.01;32.88;99596.31;5051344;28;1934;-59
2023/08/17 07:56:32;;;;;;;;;;;;;;;35.93;33.40;99608.63;5051473;28;891;-59
2023/08/17 07:58:59;;;;;;;;;;;;;;;35.80;32.68;99608.91;5051385;28;863;-59
2023/08/17 08:01:26;;;;;;;;;;;;;;;36.19;32.82;99597.91;5051319;28;852;-59
2023/08/17 08:03:54;;;;;;;;;;;;;;;35.38;33.92;99593.03;5051358;28;819;-60
2023/08/17 08:06:20;;;;;;;;;;;;;;;35.27;34.76;99604.19;5051287;28;847;-59
2023/08/17 08:08:47;;;;;;;;;;;;;;;35.13;34.66;99595.84;5051290;28;848;-59
2023/08/17 08:11:13;;;;;;;;;;;;;;;35.34;35.12;99597.66;5051241;28;819;-60
2023/08/17 08:13:40;;;;;;;;;;;;;;;35.78;33.15;99588.59;5051209;28;1983;-60
2023/08/17 08:16:07;;;;;;;;;;;;;;;36.08;33.53;99596.25;5051362;28;840;-59
2023/08/17 08:18:33;;;;;;;;;;;;;;;36.29;33.27;99580.75;5051562;28;820;-60
2023/08/17 08:20:59;;;;;;;;;;;;;;;36.48;32.92;99572.31;5051095;28;863;-59
2023/08/17 08:23:26;;;;;;;;;;;;;;;36.71;32.36;99572.09;5051186;28;820;-59
2023/08/17 08:25:52;;;;;;;;;;;;;;;36.56;32.46;99578.00;5053681;28;879;-59
2023/08/17 08:28:19;;;;;;;;;;;;;;;36.22;32.92;99576.59;5054836;28;899;-59
2023/08/17 08:33:48;;;;;;;;;;;;;;;36.11;32.85;99571.31;5054374;28;1907;-60
2023/08/17 08:36:14;;;;;;;;;;;;;;;36.57;32.50;99565.09;5054636;28;847;-59
2023/08/17 08:38:40;;;;;;;;;;;;;;;36.97;31.62;99578.50;5054624;28;849;-59
2023/08/17 08:41:08;;;;;;;;;;;;;;;37.11;31.75;99571.06;5054638;28;847;-59
2023/08/17 08:43:35;;;;;;;;;;;;;;;37.26;31.70;99572.97;5054985;28;1050;-59
2023/08/17 08:46:02;;;;;;;;;;;;;;;37.04;30.67;99569.00;5054308;28;1425;-60
2023/08/17 09:00:42;;;;;;;;;;;;;;;36.64;30.15;99586.56;5054113;28;670;-60
2023/08/17 09:03:09;;;;;;;;;;;;;;;36.53;30.86;99567.66;5054189;28;874;-59
2023/08/17 09:05:37;;;;;;;;;;;;;;;36.85;30.52;99563.09;5054165;28;848;-59
2023/08/17 09:08:03;;;;;;;;;;;;;;;36.86;29.06;99571.16;5054081;28;866;-60
2023/08/17 09:10:30;;;;;;;;;;;;;;;36.27;29.81;99577.69;5054038;28;872;-59
2023/08/17 09:12:56;;;;;;;;;;;;;;;35.58;30.58;99591.19;5053859;28;1894;-60
2023/08/17 09:15:23;;;;;;;;;;;;;;;35.13;31.65;99572.88;5053926;28;882;-59
2023/08/17 09:17:50;;;;;;;;;;;;;;;35.17;31.85;99572.47;5053803;28;871;-60
2023/08/17 09:20:35;;;;;;;;;;;;;;;35.58;30.99;99571.06;5053762;28;816;-59
2023/08/17 09:23:03;;;;;;;;;;;;;;;35.84;30.42;99574.75;5053843;28;835;-61
2023/08/17 09:25:31;;;;;;;;;;;;;;;36.18;30.40;99579.13;5053794;28;840;-59
2023/08/17 09:27:58;;;;;;;;;;;;;;;36.59;29.97;99577.56;5053641;28;888;-59
2023/08/17 09:30:24;;;;;;;;;;;;;;;36.91;29.35;99566.47;5053682;28;905;-60
2023/08/17 09:32:50;;;;;;;;;;;;;;;36.93;29.45;99563.78;5053562;28;1891;-60
2023/08/17 09:35:17;;;;;;;;;;;;;;;37.01;28.97;99564.44;5053487;28;888;-60
2023/08/17 09:37:45;;;;;;;;;;;;;;;36.68;29.05;99570.41;5052520;28;829;-59
2023/08/17 09:40:12;;;;;;;;;;;;;;;36.50;29.58;99574.59;5052075;28;1204;-59
2023/08/17 09:42:38;;;;;;;;;;;;;;;35.96;29.92;99580.81;5052217;28;1270;-60
2023/08/17 09:45:05;;;;;;;;;;;;;;;35.53;31.31;99582.81;5051856;28;1243;-59
2023/08/17 09:47:32;;;;;;;;;;;;;;;35.49;31.09;99553.72;5053305;28;820;-59
2023/08/17 09:49:59;;;;;;;;;;;;;;;35.54;30.70;99578.59;5053351;28;849;-59
2023/08/17 09:52:25;;;;;;;;;;;;;;;35.70;30.33;99580.03;5053205;28;895;-60
2023/08/17 09:54:54;;;;;;;;;;;;;;;35.77;30.42;99572.72;5051905;28;1973;-60
2023/08/17 09:57:21;;;;;;;;;;;;;;;35.74;29.81;99585.38;5053077;28;840;-60
2023/08/17 09:59:50;;;;;;;;;;;;;;;35.64;30.43;99582.38;5053145;28;904;-59
2023/08/17 10:02:21;;;;;;;;;;;;;;;36.04;30.14;99572.09;5053014;28;894;-60
2023/08/17 10:04:52;;;;;;;;;;;;;;;36.23;29.94;99586.72;5051763;28;856;-60
2023/08/17 10:07:23;;;;;;;;;;;;;;;35.71;29.47;99577.94;5053445;28;1234;-60
2023/08/17 10:10:02;;;;;;;;;;;;;;;35.50;30.33;99578.22;5053246;28;883;-59
2023/08/17 10:43:33;;;;;;;;;;;;;;;35.29;30.73;99572.78;5580284;22;2403;-71
2023/08/17 10:46:16;;;;;;;;;;;;;;;35.63;30.62;99577.19;5032287;28;914;-67
2023/08/17 10:48:45;;;;;;;;;;;;;;;35.89;29.73;99573.00;5032292;28;872;-69
2023/08/17 10:51:16;;;;;;;;;;;;;;;35.98;29.46;99567.38;5032281;28;839;-67
2023/08/17 10:53:46;;;;;;;;;;;;;;;35.95;28.68;99582.16;5032238;28;1929;-70
2023/08/17 10:56:14;;;;;;;;;;;;;;;35.78;28.89;99568.47;5032215;28;890;-67
2023/08/17 10:58:42;;;;;;;;;;;;;;;36.14;29.27;99575.88;5032239;28;883;-69
2023/08/17 11:01:09;;;;;;;;;;;;;;;36.47;28.57;99576.53;5032058;28;911;-66
2023/08/17 11:03:36;;;;;;;;;;;;;;;36.69;28.10;99580.56;5032024;28;903;-71
2023/08/17 11:06:17;;;;;;;;;;;;;;;36.79;27.75;99575.66;5031965;28;862;-67
2023/08/17 11:08:55;;;;;;;;;;;;;;;36.59;28.09;99571.03;5031917;28;880;-67
2023/08/17 11:23:34;;;;;;;;;;;;;;;36.53;28.38;99573.41;5031767;28;798;-66
2023/08/17 11:26:01;;;;;;;;;;;;;;;37.06;27.66;99572.03;5031869;28;824;-66
2023/08/17 11:28:38;;;;;;;;;;;;;;;36.93;27.10;99572.41;5031715;28;828;-66
2023/08/17 11:31:09;;;;;;;;;;;;;;;36.95;27.18;99584.09;5031928;28;914;-69
2023/08/17 11:33:36;;;;;;;;;;;;;;;36.87;26.69;99572.69;5031610;28;1902;-69
2023/08/17 11:36:05;;;;;;;;;;;;;;;36.97;27.29;99559.09;5031647;28;821;-66
2023/08/17 11:38:35;;;;;;;;;;;;;;;37.08;26.59;99557.06;5031656;28;895;-65
2023/08/17 11:41:02;;;;;;;;;;;;;;;37.13;26.21;99562.59;5031684;28;871;-64
2023/08/17 11:43:29;;;;;;;;;;;;;;;37.49;26.72;99566.91;5031353;28;1218;-64
2023/08/17 11:45:56;;;;;;;;;;;;;;;37.51;26.35;99555.53;5031709;28;871;-66
2023/08/17 11:48:23;;;;;;;;;;;;;;;37.68;25.79;99554.72;5031861;28;856;-68
2023/08/17 11:50:51;;;;;;;;;;;;;;;37.37;25.82;99563.03;5031608;28;871;-69
2023/08/17 11:53:18;;;;;;;;;;;;;;;37.56;25.92;99559.50;5031425;28;1910;-65
2023/08/17 11:55:44;;;;;;;;;;;;;;;37.84;25.02;99563.88;5031489;28;876;-65
2023/08/17 11:58:10;;;;;;;;;;;;;;;37.67;25.43;99552.44;5031442;28;874;-65
2023/08/17 12:00:41;;;;;;;;;;;;;;;37.59;26.14;99569.84;5033689;28;855;-66
2023/08/17 12:03:07;;;;;;;;;;;;;;;37.78;25.39;99569.94;5035382;28;902;-65
2023/08/17 12:05:34;;;;;;;;;;;;;;;38.26;25.10;99557.06;5035296;28;824;-66
2023/08/17 12:08:03;;;;;;;;;;;;;;;38.04;25.26;99566.84;5035290;28;988;-69
2023/08/17 12:10:37;;;;;;;;;;;;;;;38.01;25.92;99568.81;5035202;28;879;-67
2023/08/17 12:13:03;;;;;;;;;;;;;;;38.13;25.05;99563.22;5017397;28;1894;-65
2023/08/17 12:15:33;;;;;;;;;;;;;;;38.28;25.17;99554.31;5035173;28;1172;-68
2023/08/17 12:18:02;;;;;;;;;;;;;;;38.05;24.79;99553.97;5035435;28;820;-68
2023/08/17 12:20:29;;;;;;;;;;;;;;;37.66;25.89;99563.22;5017332;28;1173;-68
2023/08/17 12:22:58;;;;;;;;;;;;;;;37.63;25.80;99555.00;5017411;28;1337;-67
2023/08/17 12:25:25;;;;;;;;;;;;;;;38.20;24.65;99556.59;5035084;28;887;-68
2023/08/17 12:27:51;;;;;;;;;;;;;;;38.22;25.07;99553.06;5034858;28;859;-65
2023/08/17 12:30:25;;;;;;;;;;;;;;;38.52;24.68;99543.88;5034854;28;1035;-65
2023/08/17 12:32:52;;;;;;;;;;;;;;;38.59;24.89;99548.75;5034788;28;1890;-68
2023/08/17 12:35:21;;;;;;;;;;;;;;;39.28;24.46;99537.13;5034780;28;1004;-66
2023/08/17 12:37:48;;;;;;;;;;;;;;;39.47;24.12;99531.31;5015987;28;1424;-65
2023/08/17 12:40:14;;;;;;;;;;;;;;;39.34;24.09;99528.91;5016998;28;1424;-69
2023/08/17 12:42:41;;;;;;;;;;;;;;;39.16;24.23;99529.13;5034399;28;981;-66
2023/08/17 12:45:08;;;;;;;;;;;;;;;39.20;24.30;99546.75;5034329;28;1292;-69
2023/08/17 12:47:35;;;;;;;;;;;;;;;39.14;24.79;99542.66;5034657;28;887;-65
2023/08/17 12:50:03;;;;;;;;;;;;;;;38.93;24.65;99541.13;5034514;28;922;-65
2023/08/17 12:52:30;;;;;;;;;;;;;;;38.65;24.83;99557.13;5034440;28;828;-66
2023/08/17 12:54:56;;;;;;;;;;;;;;;38.84;25.01;99546.94;5034313;28;1902;-65
2023/08/17 12:57:24;;;;;;;;;;;;;;;39.00;24.43;99548.13;5034365;28;901;-66
2023/08/17 12:59:50;;;;;;;;;;;;;;;39.01;23.99;99552.56;5034277;28;902;-65
2023/08/17 13:02:17;;;;;;;;;;;;;;;38.84;24.32;99553.47;5034247;28;815;-65
2023/08/17 13:04:44;;;;;;;;;;;;;;;38.83;24.83;99545.41;5034293;28;828;-64
2023/08/17 13:07:11;;;;;;;;;;;;;;;38.69;24.93;99548.00;5034124;28;926;-66
2023/08/17 13:09:37;;;;;;;;;;;;;;;37.90;25.72;99546.31;5016183;28;1070;-66
2023/08/17 13:12:04;;;;;;;;;;;;;;;37.82;25.85;99546.44;5033902;28;857;-65
2023/08/17 13:14:30;;;;;;;;;;;;;;;38.44;25.92;99551.91;5033901;28;1943;-65
2023/08/17 13:16:57;;;;;;;;;;;;;;;38.87;25.28;99543.56;5033930;28;918;-67
2023/08/17 13:19:23;;;;;;;;;;;;;;;38.72;24.73;99567.75;5033971;28;848;-67
2023/08/17 13:21:50;;;;;;;;;;;;;;;36.95;25.91;99555.31;5033831;28;880;-65
2023/08/17 13:24:17;;;;;;;;;;;;;;;36.43;27.36;99556.06;5034141;28;887;-66
2023/08/17 13:26:44;;;;;;;;;;;;;;;37.04;26.57;99550.97;5033820;28;887;-64
2023/08/17 13:29:12;;;;;;;;;;;;;;;37.42;26.29;99553.34;5033655;28;851;-65
2023/08/17 13:31:39;;;;;;;;;;;;;;;36.13;27.55;99560.00;5033846;28;914;-65
2023/08/17 13:34:06;;;;;;;;;;;;;;;35.27;29.09;99546.75;5033542;28;1882;-65
2023/08/17 13:36:32;;;;;;;;;;;;;;;34.84;30.04;99554.38;5033642;28;876;-65
2023/08/17 13:38:59;;;;;;;;;;;;;;;34.62;30.33;99559.59;5033590;28;828;-66
2023/08/17 13:41:25;;;;;;;;;;;;;;;34.52;30.36;99558.66;5033439;28;858;-65
2023/08/17 13:43:52;;;;;;;;;;;;;;;34.14;31.49;99562.34;5033245;28;1277;-64
2023/08/17 13:46:19;;;;;;;;;;;;;;;33.97;31.51;99565.78;5033465;28;800;-64
2023/08/17 13:48:46;;;;;;;;;;;;;;;33.94;31.26;99561.94;5033323;28;891;-64
2023/08/17 13:51:12;;;;;;;;;;;;;;;34.38;30.64;99557.38;5033328;28;931;-64
2023/08/17 13:53:39;;;;;;;;;;;;;;;35.10;30.32;99551.03;5033213;28;1973;-64
2023/08/17 13:56:06;;;;;;;;;;;;;;;35.74;29.32;99556.63;5015436;28;1189;-64
2023/08/17 13:58:32;;;;;;;;;;;;;;;36.92;28.16;99560.13;5033161;28;867;-64